sensor_id;sensor_type;location;lat;lon;timestamp;P1;durP1;ratioP1;P2;durP2;ratioP2
25107;SDS011;13090;53.422;7.670;2023-04-04T00:04:58;4.65;;;2.10;;
25107;SDS011;13090;53.422;7.670;2023-04-04T00:10:00;3.65;;;1.50;;
25107;SDS011;13090;53.422;7.670;2023-04-04T00:15:03;5.63;;;1.90;;
25107;SDS011;13090;53.422;7.670;2023-04-04T00:20:07;2.90;;;1.42;;
25107;SDS011;13090;53.422;7.670;2023-04-04T00:25:10;4.63;;;1.60;;
25107;SDS011;13090;53.422;7.670;2023-04-04T00:30:12;6.43;;;1.70;;
25107;SDS011;13090;53.422;7.670;2023-04-04T00:35:16;4.28;;;1.80;;
25107;SDS011;13090;53.422;7.670;2023-04-04T00:40:18;3.97;;;1.75;;
25107;SDS011;13090;53.422;7.670;2023-04-04T00:45:23;3.53;;;1.38;;
25107;SDS011;13090;53.422;7.670;2023-04-04T00:50:26;3.15;;;1.63;;
25107;SDS011;13090;53.422;7.670;2023-04-04T00:55:29;3.50;;;1.60;;
25107;SDS011;13090;53.422;7.670;2023-04-04T01:00:32;4.07;;;1.63;;
25107;SDS011;13090;53.422;7.670;2023-04-04T01:05:36;2.88;;;1.65;;
25107;SDS011;13090;53.422;7.670;2023-04-04T01:10:39;4.18;;;1.70;;
25107;SDS011;13090;53.422;7.670;2023-04-04T01:15:43;2.45;;;1.40;;
25107;SDS011;13090;53.422;7.670;2023-04-04T01:20:49;2.50;;;1.60;;
25107;SDS011;13090;53.422;7.670;2023-04-04T01:26:02;2.55;;;1.55;;
25107;SDS011;13090;53.422;7.670;2023-04-04T01:31:08;2.25;;;1.60;;
25107;SDS011;13090;53.422;7.670;2023-04-04T01:36:15;2.90;;;1.67;;
25107;SDS011;13090;53.422;7.670;2023-04-04T01:41:24;2.42;;;1.55;;
25107;SDS011;13090;53.422;7.670;2023-04-04T01:46:30;4.35;;;1.70;;
25107;SDS011;13090;53.422;7.670;2023-04-04T01:51:32;2.17;;;1.33;;
25107;SDS011;13090;53.422;7.670;2023-04-04T01:56:36;4.35;;;1.60;;
25107;SDS011;13090;53.422;7.670;2023-04-04T02:01:38;8.00;;;1.70;;
25107;SDS011;13090;53.422;7.670;2023-04-04T02:06:41;2.83;;;1.73;;
25107;SDS011;13090;53.422;7.670;2023-04-04T02:11:45;5.07;;;1.90;;
25107;SDS011;13090;53.422;7.670;2023-04-04T02:16:47;5.32;;;1.88;;
25107;SDS011;13090;53.422;7.670;2023-04-04T02:21:49;3.30;;;1.88;;
25107;SDS011;13090;53.422;7.670;2023-04-04T02:26:53;5.47;;;1.63;;
25107;SDS011;13090;53.422;7.670;2023-04-04T02:31:55;2.90;;;1.73;;
25107;SDS011;13090;53.422;7.670;2023-04-04T02:36:57;4.28;;;1.65;;
25107;SDS011;13090;53.422;7.670;2023-04-04T02:42:00;5.22;;;1.80;;
25107;SDS011;13090;53.422;7.670;2023-04-04T02:47:03;5.47;;;1.58;;
25107;SDS011;13090;53.422;7.670;2023-04-04T02:52:06;4.28;;;1.60;;
25107;SDS011;13090;53.422;7.670;2023-04-04T02:57:10;5.88;;;1.80;;
25107;SDS011;13090;53.422;7.670;2023-04-04T03:02:15;2.80;;;1.52;;
25107;SDS011;13090;53.422;7.670;2023-04-04T03:07:17;3.35;;;1.20;;
25107;SDS011;13090;53.422;7.670;2023-04-04T03:12:21;3.00;;;1.58;;
25107;SDS011;13090;53.422;7.670;2023-04-04T03:17:23;3.15;;;1.40;;
25107;SDS011;13090;53.422;7.670;2023-04-04T03:22:26;2.25;;;1.38;;
25107;SDS011;13090;53.422;7.670;2023-04-04T03:27:31;2.53;;;1.50;;
25107;SDS011;13090;53.422;7.670;2023-04-04T03:32:34;3.13;;;2.05;;
25107;SDS011;13090;53.422;7.670;2023-04-04T03:37:37;2.75;;;1.48;;
25107;SDS011;13090;53.422;7.670;2023-04-04T03:42:41;3.53;;;1.80;;
25107;SDS011;13090;53.422;7.670;2023-04-04T03:47:43;2.60;;;1.45;;
25107;SDS011;13090;53.422;7.670;2023-04-04T03:52:45;5.38;;;1.50;;
25107;SDS011;13090;53.422;7.670;2023-04-04T03:57:48;2.65;;;1.75;;
25107;SDS011;13090;53.422;7.670;2023-04-04T04:02:51;3.03;;;1.60;;
25107;SDS011;13090;53.422;7.670;2023-04-04T04:07:54;4.18;;;1.70;;
25107;SDS011;13090;53.422;7.670;2023-04-04T04:12:57;4.22;;;1.80;;
25107;SDS011;13090;53.422;7.670;2023-04-04T04:18:00;6.93;;;1.88;;
25107;SDS011;13090;53.422;7.670;2023-04-04T04:23:02;3.78;;;1.63;;
25107;SDS011;13090;53.422;7.670;2023-04-04T04:28:06;3.10;;;1.92;;
25107;SDS011;13090;53.422;7.670;2023-04-04T04:33:08;5.30;;;2.05;;
25107;SDS011;13090;53.422;7.670;2023-04-04T04:38:10;2.92;;;2.00;;
25107;SDS011;13090;53.422;7.670;2023-04-04T04:43:14;4.85;;;1.88;;
25107;SDS011;13090;53.422;7.670;2023-04-04T04:48:16;2.35;;;1.65;;
25107;SDS011;13090;53.422;7.670;2023-04-04T04:53:18;6.00;;;1.92;;
25107;SDS011;13090;53.422;7.670;2023-04-04T04:58:22;4.18;;;1.75;;
25107;SDS011;13090;53.422;7.670;2023-04-04T05:03:25;7.75;;;2.70;;
25107;SDS011;13090;53.422;7.670;2023-04-04T05:08:27;7.10;;;1.48;;
25107;SDS011;13090;53.422;7.670;2023-04-04T05:13:31;5.75;;;2.88;;
25107;SDS011;13090;53.422;7.670;2023-04-04T05:18:33;6.00;;;2.63;;
25107;SDS011;13090;53.422;7.670;2023-04-04T05:23:35;8.05;;;2.58;;
25107;SDS011;13090;53.422;7.670;2023-04-04T05:28:39;18.45;;;9.45;;
25107;SDS011;13090;53.422;7.670;2023-04-04T05:33:41;18.67;;;9.93;;
25107;SDS011;13090;53.422;7.670;2023-04-04T05:38:43;13.63;;;6.57;;
25107;SDS011;13090;53.422;7.670;2023-04-04T05:43:47;16.85;;;8.25;;
25107;SDS011;13090;53.422;7.670;2023-04-04T05:48:49;14.43;;;8.48;;
25107;SDS011;13090;53.422;7.670;2023-04-04T05:53:51;9.88;;;4.88;;
25107;SDS011;13090;53.422;7.670;2023-04-04T05:58:55;6.97;;;3.45;;
25107;SDS011;13090;53.422;7.670;2023-04-04T06:03:57;11.75;;;2.83;;
25107;SDS011;13090;53.422;7.670;2023-04-04T06:08:59;9.07;;;3.58;;
25107;SDS011;13090;53.422;7.670;2023-04-04T06:14:03;8.82;;;3.60;;
25107;SDS011;13090;53.422;7.670;2023-04-04T06:19:05;8.00;;;3.83;;
25107;SDS011;13090;53.422;7.670;2023-04-04T06:24:07;4.00;;;2.50;;
25107;SDS011;13090;53.422;7.670;2023-04-04T06:29:11;9.32;;;3.92;;
25107;SDS011;13090;53.422;7.670;2023-04-04T06:34:13;7.53;;;2.83;;
25107;SDS011;13090;53.422;7.670;2023-04-04T06:39:15;4.20;;;2.45;;
25107;SDS011;13090;53.422;7.670;2023-04-04T06:44:19;10.98;;;2.72;;
25107;SDS011;13090;53.422;7.670;2023-04-04T06:49:21;4.32;;;2.60;;
25107;SDS011;13090;53.422;7.670;2023-04-04T06:54:23;3.50;;;2.53;;
25107;SDS011;13090;53.422;7.670;2023-04-04T06:59:27;6.50;;;3.47;;
25107;SDS011;13090;53.422;7.670;2023-04-04T07:04:29;4.95;;;3.25;;
25107;SDS011;13090;53.422;7.670;2023-04-04T07:09:31;6.85;;;3.05;;
25107;SDS011;13090;53.422;7.670;2023-04-04T07:14:35;5.55;;;3.00;;
25107;SDS011;13090;53.422;7.670;2023-04-04T07:19:37;5.78;;;2.88;;
25107;SDS011;13090;53.422;7.670;2023-04-04T07:24:39;6.10;;;3.15;;
25107;SDS011;13090;53.422;7.670;2023-04-04T07:29:43;9.43;;;3.85;;
25107;SDS011;13090;53.422;7.670;2023-04-04T07:34:45;5.85;;;2.78;;
25107;SDS011;13090;53.422;7.670;2023-04-04T07:39:47;3.58;;;2.33;;
25107;SDS011;13090;53.422;7.670;2023-04-04T07:44:51;5.80;;;2.67;;
25107;SDS011;13090;53.422;7.670;2023-04-04T07:49:53;3.78;;;2.40;;
25107;SDS011;13090;53.422;7.670;2023-04-04T07:54:56;6.10;;;2.25;;
25107;SDS011;13090;53.422;7.670;2023-04-04T07:59:59;6.10;;;2.17;;
25107;SDS011;13090;53.422;7.670;2023-04-04T08:05:01;4.07;;;1.92;;
25107;SDS011;13090;53.422;7.670;2023-04-04T08:10:04;3.15;;;1.50;;
25107;SDS011;13090;53.422;7.670;2023-04-04T08:15:11;2.45;;;1.02;;
25107;SDS011;13090;53.422;7.670;2023-04-04T08:20:14;5.43;;;1.75;;
25107;SDS011;13090;53.422;7.670;2023-04-04T08:25:16;3.13;;;1.75;;
25107;SDS011;13090;53.422;7.670;2023-04-04T08:30:20;4.03;;;1.40;;
25107;SDS011;13090;53.422;7.670;2023-04-04T08:35:22;2.97;;;1.60;;
25107;SDS011;13090;53.422;7.670;2023-04-04T08:40:25;3.10;;;1.67;;
25107;SDS011;13090;53.422;7.670;2023-04-04T08:45:28;4.45;;;1.80;;
25107;SDS011;13090;53.422;7.670;2023-04-04T08:50:32;2.88;;;1.67;;
25107;SDS011;13090;53.422;7.670;2023-04-04T08:55:36;2.95;;;1.20;;
25107;SDS011;13090;53.422;7.670;2023-04-04T09:00:44;7.68;;;1.77;;
25107;SDS011;13090;53.422;7.670;2023-04-04T09:05:46;6.65;;;1.58;;
25107;SDS011;13090;53.422;7.670;2023-04-04T09:10:52;4.13;;;1.67;;
25107;SDS011;13090;53.422;7.670;2023-04-04T09:15:56;3.65;;;1.55;;
25107;SDS011;13090;53.422;7.670;2023-04-04T09:21:07;3.58;;;1.63;;
25107;SDS011;13090;53.422;7.670;2023-04-04T09:26:09;3.38;;;1.38;;
25107;SDS011;13090;53.422;7.670;2023-04-04T09:31:13;5.05;;;1.58;;
25107;SDS011;13090;53.422;7.670;2023-04-04T09:36:16;2.10;;;1.13;;
25107;SDS011;13090;53.422;7.670;2023-04-04T09:41:19;4.07;;;1.83;;
25107;SDS011;13090;53.422;7.670;2023-04-04T09:46:22;4.55;;;1.58;;
25107;SDS011;13090;53.422;7.670;2023-04-04T09:51:32;3.10;;;1.90;;
25107;SDS011;13090;53.422;7.670;2023-04-04T09:56:35;2.95;;;1.85;;
25107;SDS011;13090;53.422;7.670;2023-04-04T10:01:39;2.97;;;1.33;;
25107;SDS011;13090;53.422;7.670;2023-04-04T10:06:42;3.40;;;1.83;;
25107;SDS011;13090;53.422;7.670;2023-04-04T10:11:48;3.75;;;1.67;;
25107;SDS011;13090;53.422;7.670;2023-04-04T10:16:51;5.80;;;1.60;;
25107;SDS011;13090;53.422;7.670;2023-04-04T10:21:57;5.68;;;3.20;;
25107;SDS011;13090;53.422;7.670;2023-04-04T10:27:00;2.92;;;1.65;;
25107;SDS011;13090;53.422;7.670;2023-04-04T10:32:05;3.78;;;1.92;;
25107;SDS011;13090;53.422;7.670;2023-04-04T10:37:11;2.75;;;1.42;;
25107;SDS011;13090;53.422;7.670;2023-04-04T10:42:19;4.68;;;1.80;;
25107;SDS011;13090;53.422;7.670;2023-04-04T10:47:24;4.57;;;1.95;;
25107;SDS011;13090;53.422;7.670;2023-04-04T10:52:28;4.65;;;2.28;;
25107;SDS011;13090;53.422;7.670;2023-04-04T10:57:33;2.33;;;1.63;;
25107;SDS011;13090;53.422;7.670;2023-04-04T11:02:52;5.05;;;1.50;;
25107;SDS011;13090;53.422;7.670;2023-04-04T11:07:57;3.00;;;1.30;;
25107;SDS011;13090;53.422;7.670;2023-04-04T11:13:12;3.78;;;1.70;;
25107;SDS011;13090;53.422;7.670;2023-04-04T11:18:20;3.00;;;1.50;;
25107;SDS011;13090;53.422;7.670;2023-04-04T11:23:37;3.08;;;1.58;;
25107;SDS011;13090;53.422;7.670;2023-04-04T11:29:19;4.25;;;1.70;;
25107;SDS011;13090;53.422;7.670;2023-04-04T11:34:43;3.90;;;2.27;;
25107;SDS011;13090;53.422;7.670;2023-04-04T11:39:46;5.72;;;2.22;;
25107;SDS011;13090;53.422;7.670;2023-04-04T11:45:02;3.58;;;1.65;;
25107;SDS011;13090;53.422;7.670;2023-04-04T11:50:08;3.47;;;1.73;;
25107;SDS011;13090;53.422;7.670;2023-04-04T11:55:14;5.22;;;2.10;;
25107;SDS011;13090;53.422;7.670;2023-04-04T12:00:27;4.05;;;2.20;;
25107;SDS011;13090;53.422;7.670;2023-04-04T12:05:32;3.08;;;1.73;;
25107;SDS011;13090;53.422;7.670;2023-04-04T12:10:36;4.05;;;1.90;;
25107;SDS011;13090;53.422;7.670;2023-04-04T12:15:41;3.00;;;1.95;;
25107;SDS011;13090;53.422;7.670;2023-04-04T12:20:49;3.22;;;1.55;;
25107;SDS011;13090;53.422;7.670;2023-04-04T12:25:51;1.77;;;1.25;;
25107;SDS011;13090;53.422;7.670;2023-04-04T12:30:55;3.97;;;1.75;;
25107;SDS011;13090;53.422;7.670;2023-04-04T12:35:59;4.93;;;1.60;;
25107;SDS011;13090;53.422;7.670;2023-04-04T12:41:02;2.55;;;1.45;;
25107;SDS011;13090;53.422;7.670;2023-04-04T12:46:09;3.50;;;1.95;;
25107;SDS011;13090;53.422;7.670;2023-04-04T12:51:13;1.67;;;1.40;;
25107;SDS011;13090;53.422;7.670;2023-04-04T12:56:15;4.88;;;1.60;;
25107;SDS011;13090;53.422;7.670;2023-04-04T13:01:17;4.07;;;1.80;;
25107;SDS011;13090;53.422;7.670;2023-04-04T13:06:23;2.72;;;1.63;;
25107;SDS011;13090;53.422;7.670;2023-04-04T13:16:59;2.40;;;1.40;;
25107;SDS011;13090;53.422;7.670;2023-04-04T13:22:06;4.65;;;2.13;;
25107;SDS011;13090;53.422;7.670;2023-04-04T13:27:09;4.17;;;2.20;;
25107;SDS011;13090;53.422;7.670;2023-04-04T13:32:11;6.07;;;2.78;;
25107;SDS011;13090;53.422;7.670;2023-04-04T13:37:15;3.88;;;1.88;;
25107;SDS011;13090;53.422;7.670;2023-04-04T13:42:17;4.13;;;2.20;;
25107;SDS011;13090;53.422;7.670;2023-04-04T13:47:22;3.15;;;2.25;;
25107;SDS011;13090;53.422;7.670;2023-04-04T13:52:26;2.60;;;1.85;;
25107;SDS011;13090;53.422;7.670;2023-04-04T13:57:28;5.32;;;2.20;;
25107;SDS011;13090;53.422;7.670;2023-04-04T14:02:30;3.45;;;2.08;;
25107;SDS011;13090;53.422;7.670;2023-04-04T14:07:34;3.42;;;2.10;;
25107;SDS011;13090;53.422;7.670;2023-04-04T14:12:38;4.30;;;2.22;;
25107;SDS011;13090;53.422;7.670;2023-04-04T14:17:41;4.50;;;2.67;;
25107;SDS011;13090;53.422;7.670;2023-04-04T14:22:45;6.35;;;2.33;;
25107;SDS011;13090;53.422;7.670;2023-04-04T14:27:47;4.95;;;2.10;;
25107;SDS011;13090;53.422;7.670;2023-04-04T14:32:49;5.72;;;2.38;;
25107;SDS011;13090;53.422;7.670;2023-04-04T14:37:53;3.55;;;2.30;;
25107;SDS011;13090;53.422;7.670;2023-04-04T14:42:56;5.20;;;2.30;;
25107;SDS011;13090;53.422;7.670;2023-04-04T14:47:58;5.45;;;2.20;;
25107;SDS011;13090;53.422;7.670;2023-04-04T14:53:02;4.80;;;2.20;;
25107;SDS011;13090;53.422;7.670;2023-04-04T14:58:04;3.72;;;2.05;;
25107;SDS011;13090;53.422;7.670;2023-04-04T15:03:06;2.88;;;1.90;;
25107;SDS011;13090;53.422;7.670;2023-04-04T15:08:10;4.15;;;2.40;;
25107;SDS011;13090;53.422;7.670;2023-04-04T15:13:12;6.85;;;3.90;;
25107;SDS011;13090;53.422;7.670;2023-04-04T15:18:14;5.13;;;2.58;;
25107;SDS011;13090;53.422;7.670;2023-04-04T15:23:18;3.88;;;2.60;;
25107;SDS011;13090;53.422;7.670;2023-04-04T15:28:21;4.70;;;2.20;;
25107;SDS011;13090;53.422;7.670;2023-04-04T15:33:23;4.03;;;2.30;;
25107;SDS011;13090;53.422;7.670;2023-04-04T15:38:26;3.00;;;2.33;;
25107;SDS011;13090;53.422;7.670;2023-04-04T15:43:29;4.85;;;2.60;;
25107;SDS011;13090;53.422;7.670;2023-04-04T15:48:34;4.20;;;2.65;;
25107;SDS011;13090;53.422;7.670;2023-04-04T15:53:37;9.05;;;3.25;;
25107;SDS011;13090;53.422;7.670;2023-04-04T15:58:39;5.35;;;2.53;;
25107;SDS011;13090;53.422;7.670;2023-04-04T16:03:42;4.78;;;2.63;;
25107;SDS011;13090;53.422;7.670;2023-04-04T16:08:45;5.25;;;3.28;;
25107;SDS011;13090;53.422;7.670;2023-04-04T16:13:47;4.32;;;2.53;;
25107;SDS011;13090;53.422;7.670;2023-04-04T16:18:50;5.28;;;2.53;;
25107;SDS011;13090;53.422;7.670;2023-04-04T16:23:53;5.43;;;3.00;;
25107;SDS011;13090;53.422;7.670;2023-04-04T16:28:56;5.00;;;2.72;;
25107;SDS011;13090;53.422;7.670;2023-04-04T16:33:58;4.70;;;2.67;;
25107;SDS011;13090;53.422;7.670;2023-04-04T16:39:01;4.85;;;2.65;;
25107;SDS011;13090;53.422;7.670;2023-04-04T16:44:03;3.75;;;2.30;;
25107;SDS011;13090;53.422;7.670;2023-04-04T16:49:06;4.03;;;2.50;;
25107;SDS011;13090;53.422;7.670;2023-04-04T16:54:12;5.30;;;2.78;;
25107;SDS011;13090;53.422;7.670;2023-04-04T16:59:14;5.97;;;2.92;;
25107;SDS011;13090;53.422;7.670;2023-04-04T17:04:17;7.35;;;3.63;;
25107;SDS011;13090;53.422;7.670;2023-04-04T17:09:21;6.50;;;2.58;;
25107;SDS011;13090;53.422;7.670;2023-04-04T17:14:23;4.22;;;2.50;;
25107;SDS011;13090;53.422;7.670;2023-04-04T17:19:26;5.60;;;2.75;;
25107;SDS011;13090;53.422;7.670;2023-04-04T17:24:30;5.15;;;2.50;;
25107;SDS011;13090;53.422;7.670;2023-04-04T17:29:33;6.60;;;2.17;;
25107;SDS011;13090;53.422;7.670;2023-04-04T17:34:35;5.65;;;2.65;;
25107;SDS011;13090;53.422;7.670;2023-04-04T17:39:38;3.95;;;2.35;;
25107;SDS011;13090;53.422;7.670;2023-04-04T17:44:41;5.70;;;2.40;;
25107;SDS011;13090;53.422;7.670;2023-04-04T17:49:43;5.07;;;3.15;;
25107;SDS011;13090;53.422;7.670;2023-04-04T17:54:46;6.47;;;2.67;;
25107;SDS011;13090;53.422;7.670;2023-04-04T17:59:48;4.65;;;2.90;;
25107;SDS011;13090;53.422;7.670;2023-04-04T18:04:52;4.88;;;3.15;;
25107;SDS011;13090;53.422;7.670;2023-04-04T18:09:56;6.15;;;2.92;;
25107;SDS011;13090;53.422;7.670;2023-04-04T18:14:58;10.40;;;5.35;;
25107;SDS011;13090;53.422;7.670;2023-04-04T18:20:00;6.45;;;3.22;;
25107;SDS011;13090;53.422;7.670;2023-04-04T18:25:04;7.72;;;3.35;;
25107;SDS011;13090;53.422;7.670;2023-04-04T18:30:07;5.38;;;2.90;;
25107;SDS011;13090;53.422;7.670;2023-04-04T18:35:10;8.68;;;4.10;;
25107;SDS011;13090;53.422;7.670;2023-04-04T18:40:14;7.88;;;3.88;;
25107;SDS011;13090;53.422;7.670;2023-04-04T18:45:16;7.35;;;3.78;;
25107;SDS011;13090;53.422;7.670;2023-04-04T18:50:21;9.18;;;4.25;;
25107;SDS011;13090;53.422;7.670;2023-04-04T18:55:24;5.30;;;2.92;;
25107;SDS011;13090;53.422;7.670;2023-04-04T19:00:27;8.50;;;3.75;;
25107;SDS011;13090;53.422;7.670;2023-04-04T19:05:29;5.68;;;3.50;;
25107;SDS011;13090;53.422;7.670;2023-04-04T19:10:35;6.03;;;3.42;;
25107;SDS011;13090;53.422;7.670;2023-04-04T19:15:39;6.47;;;3.17;;
25107;SDS011;13090;53.422;7.670;2023-04-04T19:20:42;8.20;;;3.10;;
25107;SDS011;13090;53.422;7.670;2023-04-04T19:25:46;6.78;;;3.40;;
25107;SDS011;13090;53.422;7.670;2023-04-04T19:30:48;7.13;;;3.00;;
25107;SDS011;13090;53.422;7.670;2023-04-04T19:35:51;6.28;;;3.38;;
25107;SDS011;13090;53.422;7.670;2023-04-04T19:40:57;5.53;;;2.95;;
25107;SDS011;13090;53.422;7.670;2023-04-04T19:46:05;6.70;;;3.40;;
25107;SDS011;13090;53.422;7.670;2023-04-04T19:51:09;7.07;;;3.40;;
25107;SDS011;13090;53.422;7.670;2023-04-04T19:56:14;7.95;;;3.95;;
25107;SDS011;13090;53.422;7.670;2023-04-04T20:01:19;7.80;;;4.07;;
25107;SDS011;13090;53.422;7.670;2023-04-04T20:06:23;9.30;;;4.28;;
25107;SDS011;13090;53.422;7.670;2023-04-04T20:11:28;5.10;;;3.65;;
25107;SDS011;13090;53.422;7.670;2023-04-04T20:16:31;9.02;;;5.10;;
25107;SDS011;13090;53.422;7.670;2023-04-04T20:21:34;9.68;;;4.85;;
25107;SDS011;13090;53.422;7.670;2023-04-04T20:26:44;7.68;;;4.43;;
25107;SDS011;13090;53.422;7.670;2023-04-04T20:31:51;9.13;;;4.43;;
25107;SDS011;13090;53.422;7.670;2023-04-04T20:36:54;6.68;;;3.70;;
25107;SDS011;13090;53.422;7.670;2023-04-04T20:41:58;6.82;;;3.67;;
25107;SDS011;13090;53.422;7.670;2023-04-04T20:47:00;5.90;;;3.50;;
25107;SDS011;13090;53.422;7.670;2023-04-04T20:52:02;7.13;;;3.22;;
25107;SDS011;13090;53.422;7.670;2023-04-04T20:57:08;6.80;;;3.63;;
25107;SDS011;13090;53.422;7.670;2023-04-04T21:02:13;6.60;;;3.58;;
25107;SDS011;13090;53.422;7.670;2023-04-04T21:07:37;9.80;;;3.55;;
25107;SDS011;13090;53.422;7.670;2023-04-04T21:12:42;6.95;;;3.83;;
25107;SDS011;13090;53.422;7.670;2023-04-04T21:17:44;7.35;;;4.30;;
25107;SDS011;13090;53.422;7.670;2023-04-04T21:22:46;7.63;;;4.38;;
25107;SDS011;13090;53.422;7.670;2023-04-04T21:27:52;8.68;;;4.25;;
25107;SDS011;13090;53.422;7.670;2023-04-04T21:32:56;7.43;;;3.58;;
25107;SDS011;13090;53.422;7.670;2023-04-04T21:37:58;8.75;;;3.83;;
25107;SDS011;13090;53.422;7.670;2023-04-04T21:43:02;7.30;;;3.90;;
25107;SDS011;13090;53.422;7.670;2023-04-04T21:53:12;9.68;;;3.90;;
25107;SDS011;13090;53.422;7.670;2023-04-04T21:58:16;8.45;;;4.22;;
25107;SDS011;13090;53.422;7.670;2023-04-04T22:03:20;8.70;;;4.00;;
25107;SDS011;13090;53.422;7.670;2023-04-04T22:08:22;8.13;;;3.90;;
25107;SDS011;13090;53.422;7.670;2023-04-04T22:13:25;6.40;;;3.75;;
25107;SDS011;13090;53.422;7.670;2023-04-04T22:18:27;6.22;;;3.80;;
25107;SDS011;13090;53.422;7.670;2023-04-04T22:23:33;8.60;;;3.90;;
25107;SDS011;13090;53.422;7.670;2023-04-04T22:28:37;6.63;;;3.53;;
25107;SDS011;13090;53.422;7.670;2023-04-04T22:33:40;7.38;;;4.18;;
25107;SDS011;13090;53.422;7.670;2023-04-04T22:38:42;6.95;;;4.07;;
25107;SDS011;13090;53.422;7.670;2023-04-04T22:43:46;6.80;;;3.80;;
25107;SDS011;13090;53.422;7.670;2023-04-04T22:48:48;6.20;;;4.40;;
25107;SDS011;13090;53.422;7.670;2023-04-04T22:53:50;8.00;;;4.30;;
25107;SDS011;13090;53.422;7.670;2023-04-04T22:58:53;8.90;;;4.40;;
25107;SDS011;13090;53.422;7.670;2023-04-04T23:03:55;8.10;;;4.53;;
25107;SDS011;13090;53.422;7.670;2023-04-04T23:08:58;5.90;;;3.92;;
25107;SDS011;13090;53.422;7.670;2023-04-04T23:14:01;7.95;;;3.95;;
25107;SDS011;13090;53.422;7.670;2023-04-04T23:19:04;6.93;;;4.15;;
25107;SDS011;13090;53.422;7.670;2023-04-04T23:24:07;8.65;;;4.15;;
25107;SDS011;13090;53.422;7.670;2023-04-04T23:29:10;5.82;;;3.63;;
25107;SDS011;13090;53.422;7.670;2023-04-04T23:34:12;8.38;;;3.55;;
25107;SDS011;13090;53.422;7.670;2023-04-04T23:39:14;5.43;;;3.60;;
25107;SDS011;13090;53.422;7.670;2023-04-04T23:44:18;7.28;;;3.67;;
25107;SDS011;13090;53.422;7.670;2023-04-04T23:49:22;7.68;;;4.00;;
25107;SDS011;13090;53.422;7.670;2023-04-04T23:54:26;8.25;;;4.38;;
25107;SDS011;13090;53.422;7.670;2023-04-04T23:59:29;6.38;;;3.80;;
